Time;durP1;ratioP1;P1;durP2;ratioP2;P2;SDS_P1;SDS_P2;PMS_P1;PMS_P2;Temp;Humidity;BMP_temperature;BMP_pressure;BME280_temperature;BME280_humidity;BME280_pressure;Samples;Min_cycle;Max_cycle;Signal;HPM_P1;HPM_P2
2024/03/05 00:02:13;;;;;;;28.13;11.70;;;7.40;99.90;;;;;;5052992;28;20040;-75
2024/03/05 00:04:39;;;;;;;29.60;12.43;;;7.40;99.90;;;;;;5054619;28;20128;-73
2024/03/05 00:07:07;;;;;;;27.05;12.00;;;7.40;99.90;;;;;;5054321;28;20505;-74
2024/03/05 00:09:33;;;;;;;27.40;12.02;;;7.40;99.90;;;;;;5055025;28;20029;-75
2024/03/05 00:11:58;;;;;;;24.88;11.50;;;7.30;99.90;;;;;;5050356;28;20053;-73
2024/03/05 00:14:24;;;;;;;25.70;11.88;;;7.20;99.90;;;;;;5047513;28;20041;-75
2024/03/05 00:16:50;;;;;;;25.77;11.07;;;7.20;99.90;;;;;;5052774;28;20033;-74
2024/03/05 00:19:16;;;;;;;31.27;12.60;;;7.30;99.90;;;;;;5053148;28;20056;-75
2024/03/05 00:21:42;;;;;;;25.98;11.63;;;7.30;99.90;;;;;;5051059;28;20136;-74
2024/03/05 00:24:07;;;;;;;28.67;12.05;;;7.30;99.90;;;;;;5054161;28;20293;-74
2024/03/05 00:26:33;;;;;;;28.55;12.25;;;7.30;99.90;;;;;;5055628;28;20074;-75
2024/03/05 00:29:02;;;;;;;31.27;13.32;;;7.30;99.90;;;;;;5056660;28;20021;-75
2024/03/05 00:31:28;;;;;;;;;;;7.30;99.90;;;;;;5055387;28;20033;-73
2024/03/05 00:33:54;;;;;;;32.22;11.93;;;7.30;99.90;;;;;;5051577;28;19913;-74
2024/03/05 00:36:20;;;;;;;31.88;12.40;;;7.30;99.90;;;;;;5053176;28;20081;-75
2024/03/05 00:38:46;;;;;;;29.98;12.35;;;7.30;99.90;;;;;;5056598;28;20025;-75
2024/03/05 00:41:13;;;;;;;25.30;13.15;;;7.30;99.90;;;;;;5051019;28;20486;-75
2024/03/05 00:43:39;;;;;;;32.47;13.25;;;7.30;99.90;;;;;;5047172;28;20029;-75
2024/03/05 00:46:06;;;;;;;34.15;13.40;;;7.30;99.90;;;;;;5051800;28;20029;-74
2024/03/05 00:48:32;;;;;;;35.75;13.70;;;7.20;99.90;;;;;;5056462;28;20021;-75
2024/03/05 00:50:58;;;;;;;27.83;12.50;;;7.20;99.90;;;;;;5047078;28;20056;-73
2024/03/05 00:53:23;;;;;;;35.55;13.52;;;7.20;99.90;;;;;;5048443;28;20029;-74
2024/03/05 00:55:49;;;;;;;31.25;13.18;;;7.20;99.90;;;;;;5051681;28;20029;-74
2024/03/05 00:58:15;;;;;;;32.90;13.93;;;7.10;99.90;;;;;;5048582;28;20049;-75
2024/03/05 01:00:43;;;;;;;32.65;14.13;;;7.20;99.90;;;;;;5051453;28;20115;-75
2024/03/05 01:03:10;;;;;;;34.22;13.30;;;7.20;99.90;;;;;;5051592;28;20027;-75
2024/03/05 01:05:36;;;;;;;36.70;13.45;;;7.10;99.90;;;;;;5051178;28;20037;-74
2024/03/05 01:08:02;;;;;;;32.38;13.00;;;7.20;99.90;;;;;;5053373;28;20219;-74
2024/03/05 01:10:28;;;;;;;26.92;12.18;;;7.20;99.90;;;;;;5053081;28;20444;-73
2024/03/05 01:12:56;;;;;;;36.80;14.50;;;7.10;99.90;;;;;;5053119;28;20052;-72
2024/03/05 01:15:22;;;;;;;32.77;13.67;;;7.10;99.90;;;;;;5053841;28;20475;-73
2024/03/05 01:17:48;;;;;;;31.08;12.95;;;7.10;99.90;;;;;;5050272;28;20032;-74
2024/03/05 01:20:18;;;;;;;30.63;13.98;;;7.10;99.90;;;;;;5051897;28;20349;-73
2024/03/05 01:22:44;;;;;;;36.55;16.05;;;7.00;99.90;;;;;;5050438;28;20137;-73
2024/03/05 01:25:10;;;;;;;36.75;14.52;;;7.10;99.90;;;;;;5054590;28;20071;-73
2024/03/05 01:27:38;;;;;;;40.67;15.40;;;7.10;99.90;;;;;;5053606;28;20029;-73
2024/03/05 01:30:07;;;;;;;36.80;14.40;;;7.10;99.90;;;;;;5048600;28;20032;-73
2024/03/05 01:32:34;;;;;;;31.27;14.32;;;7.10;99.90;;;;;;5051701;28;20029;-74
2024/03/05 01:35:00;;;;;;;34.38;14.60;;;7.10;99.90;;;;;;5053194;28;20569;-73
2024/03/05 01:37:26;;;;;;;38.80;15.45;;;7.10;99.90;;;;;;5051762;28;20122;-74
2024/03/05 01:39:51;;;;;;;39.72;15.45;;;7.00;99.90;;;;;;5053700;28;20031;-75
2024/03/05 01:42:17;;;;;;;34.65;14.15;;;7.00;99.90;;;;;;5055657;28;20048;-76
2024/03/05 01:44:43;;;;;;;34.35;13.65;;;7.00;99.90;;;;;;5047055;28;20059;-75
2024/03/05 01:47:09;;;;;;;32.75;14.50;;;7.00;99.90;;;;;;5052484;28;20124;-75
2024/03/05 01:49:35;;;;;;;35.95;14.85;;;7.00;99.90;;;;;;5058271;28;20029;-75
2024/03/05 01:52:01;;;;;;;34.45;13.73;;;7.10;99.90;;;;;;5050419;28;20067;-73
2024/03/05 01:54:29;;;;;;;36.38;14.48;;;6.90;99.90;;;;;;5051678;28;20040;-73
2024/03/05 01:56:59;;;;;;;30.75;13.18;;;6.90;99.90;;;;;;5047762;28;20026;-73
2024/03/05 01:59:26;;;;;;;38.15;14.52;;;6.90;99.90;;;;;;5051572;28;20057;-73
2024/03/05 02:01:53;;;;;;;30.90;13.55;;;7.00;99.90;;;;;;5046670;28;20532;-74
2024/03/05 02:04:19;;;;;;;36.42;14.20;;;7.10;99.90;;;;;;5047248;28;20260;-75
2024/03/05 02:06:46;;;;;;;35.67;14.75;;;7.00;99.90;;;;;;5052190;28;20024;-73
2024/03/05 02:09:12;;;;;;;35.63;14.27;;;6.90;99.90;;;;;;5048877;28;20021;-74
2024/03/05 02:11:40;;;;;;;37.25;14.45;;;6.80;99.90;;;;;;5050555;28;20482;-73
2024/03/05 02:14:07;;;;;;;33.03;14.27;;;6.80;99.90;;;;;;5050516;28;20666;-74
2024/03/05 02:16:33;;;;;;;30.90;11.85;;;6.90;99.90;;;;;;5051176;28;20089;-74
2024/03/05 02:18:59;;;;;;;36.75;14.02;;;6.80;99.90;;;;;;5049431;28;20078;-73
2024/03/05 02:21:25;;;;;;;34.95;12.82;;;6.70;99.90;;;;;;5046879;28;20029;-74
2024/03/05 02:23:50;;;;;;;28.67;13.32;;;6.60;99.90;;;;;;5049485;28;20033;-75
2024/03/05 02:26:17;;;;;;;35.83;14.98;;;6.70;99.90;;;;;;5050914;28;20029;-75
2024/03/05 02:28:46;;;;;;;34.17;13.10;;;6.70;99.90;;;;;;5050125;28;20017;-74
2024/03/05 02:31:12;;;;;;;;;;;6.70;99.90;;;;;;5049490;28;20021;-73
2024/03/05 02:33:39;;;;;;;35.42;13.82;;;6.80;99.90;;;;;;5050623;28;19924;-74
2024/03/05 02:36:08;;;;;;;33.92;14.82;;;6.80;99.90;;;;;;5051772;28;20067;-76
2024/03/05 02:38:34;;;;;;;;;;;6.80;99.90;;;;;;5051761;28;20124;-74
2024/03/05 02:40:59;;;;;;;33.60;13.82;;;6.80;99.90;;;;;;5046366;28;19947;-73
2024/03/05 02:43:25;;;;;;;35.80;14.05;;;6.80;99.90;;;;;;5049638;28;20037;-74
2024/03/05 02:45:51;;;;;;;33.40;14.55;;;6.80;99.90;;;;;;5048474;28;20036;-74
2024/03/05 02:48:17;;;;;;;36.97;14.68;;;6.80;99.90;;;;;;5051756;28;20021;-74
2024/03/05 02:50:43;;;;;;;39.22;15.02;;;6.90;99.90;;;;;;5040299;28;20558;-74
2024/03/05 02:53:09;;;;;;;40.13;14.77;;;6.90;99.90;;;;;;5048430;28;20039;-74
2024/03/05 02:55:41;;;;;;;30.95;12.75;;;6.90;99.90;;;;;;5047749;28;20032;-75
2024/03/05 02:58:07;;;;;;;31.42;13.88;;;6.70;99.90;;;;;;5049082;28;20039;-74
2024/03/05 03:00:33;;;;;;;38.53;14.82;;;6.70;99.90;;;;;;5048941;28;20025;-74
2024/03/05 03:02:59;;;;;;;36.13;14.57;;;6.70;99.90;;;;;;5050845;28;20205;-73
2024/03/05 03:05:25;;;;;;;34.55;13.98;;;6.70;99.90;;;;;;5049208;28;20036;-75
2024/03/05 03:07:51;;;;;;;35.90;14.50;;;6.90;99.90;;;;;;5050296;28;20479;-75
2024/03/05 03:10:17;;;;;;;34.50;13.85;;;6.90;99.90;;;;;;5049953;28;20461;-74
2024/03/05 03:12:47;;;;;;;40.20;14.88;;;6.90;99.90;;;;;;5029984;28;20021;-74
2024/03/05 03:15:13;;;;;;;37.40;15.00;;;6.90;99.90;;;;;;5049738;28;20017;-75
2024/03/05 03:17:42;;;;;;;33.58;14.68;;;6.80;99.90;;;;;;5049324;28;20581;-73
2024/03/05 03:20:09;;;;;;;34.70;14.55;;;6.80;99.90;;;;;;5045459;28;20025;-73
2024/03/05 03:22:36;;;;;;;35.65;15.75;;;6.70;99.90;;;;;;5051132;28;20086;-73
2024/03/05 03:25:02;;;;;;;33.53;14.70;;;6.80;99.90;;;;;;5052056;28;20032;-72
2024/03/05 03:27:28;;;;;;;38.00;15.43;;;6.90;99.90;;;;;;5052311;28;20033;-77
2024/03/05 03:29:53;;;;;;;40.85;14.38;;;6.90;99.90;;;;;;5056565;28;20044;-75
2024/03/05 03:32:19;;;;;;;35.63;13.40;;;6.90;99.90;;;;;;5060039;28;20032;-74
2024/03/05 03:34:46;;;;;;;32.83;13.73;;;6.80;99.90;;;;;;5057297;28;20032;-76
2024/03/05 03:37:14;;;;;;;33.58;14.88;;;6.80;99.90;;;;;;5060196;28;20024;-74
2024/03/05 03:39:43;;;;;;;33.17;14.00;;;6.80;99.90;;;;;;5061307;28;20028;-74
2024/03/05 03:42:10;;;;;;;37.40;15.18;;;6.70;99.90;;;;;;5061898;28;20087;-74
2024/03/05 03:44:37;;;;;;;32.45;13.00;;;6.70;99.90;;;;;;5058190;28;20029;-75
2024/03/05 03:47:04;;;;;;;30.20;13.52;;;6.50;99.90;;;;;;5059858;28;20032;-75
2024/03/05 03:49:30;;;;;;;29.45;12.65;;;6.30;99.90;;;;;;5062326;28;20029;-76
2024/03/05 03:51:56;;;;;;;36.85;14.30;;;6.30;99.90;;;;;;5059954;28;20046;-75
2024/03/05 03:54:21;;;;;;;39.38;13.73;;;6.40;99.90;;;;;;5064331;28;20025;-74
2024/03/05 03:56:48;;;;;;;32.67;12.80;;;6.30;99.90;;;;;;5061013;28;20032;-74
2024/03/05 03:59:14;;;;;;;32.78;13.65;;;6.40;99.90;;;;;;5059109;28;20024;-75
2024/03/05 04:01:44;;;;;;;34.30;14.55;;;6.40;99.90;;;;;;5055181;28;20056;-75
2024/03/05 04:04:12;;;;;;;38.97;16.00;;;6.40;99.90;;;;;;5058423;28;20021;-75
2024/03/05 04:06:39;;;;;;;39.08;15.93;;;6.50;99.90;;;;;;5058688;28;20061;-74
2024/03/05 04:09:08;;;;;;;33.47;13.73;;;6.40;99.90;;;;;;5058309;28;20036;-74
2024/03/05 04:11:37;;;;;;;43.13;15.70;;;6.50;99.90;;;;;;5056341;28;20032;-74
2024/03/05 04:14:03;;;;;;;35.13;14.98;;;6.50;99.90;;;;;;5062777;28;20029;-75
2024/03/05 04:16:29;;;;;;;41.53;16.00;;;6.50;99.90;;;;;;5063773;28;20111;-75
2024/03/05 04:18:55;;;;;;;36.72;15.45;;;6.40;99.90;;;;;;5060412;28;20094;-75
2024/03/05 04:21:21;;;;;;;38.55;15.35;;;6.40;99.90;;;;;;5057115;28;20040;-75
2024/03/05 04:23:46;;;;;;;35.97;14.20;;;6.40;99.90;;;;;;5054821;28;20028;-73
2024/03/05 04:26:22;;;;;;;39.13;16.20;;;6.40;99.90;;;;;;5062385;28;20013;-75
2024/03/05 04:28:52;;;;;;;31.67;15.50;;;6.30;99.90;;;;;;5054010;28;20507;-74
2024/03/05 04:31:30;;;;;;;37.08;14.77;;;6.40;99.90;;;;;;5058175;28;20123;-74
2024/03/05 04:33:59;;;;;;;45.03;16.45;;;6.40;99.90;;;;;;5061158;28;20056;-73
2024/03/05 04:36:24;;;;;;;42.15;14.82;;;6.30;99.90;;;;;;5057665;28;20123;-74
2024/03/05 04:38:51;;;;;;;39.55;15.48;;;6.40;99.90;;;;;;5049605;28;20029;-74
2024/03/05 04:41:17;;;;;;;35.33;15.02;;;6.40;99.90;;;;;;5048075;28;20021;-74
2024/03/05 04:43:43;;;;;;;41.38;15.38;;;6.40;99.90;;;;;;5049190;28;20037;-72
2024/03/05 04:46:11;;;;;;;33.50;14.27;;;6.40;99.90;;;;;;5049578;28;20395;-74
2024/03/05 04:48:38;;;;;;;37.45;15.00;;;6.40;99.90;;;;;;5053097;28;20024;-74
2024/03/05 04:51:06;;;;;;;37.78;14.65;;;6.40;99.90;;;;;;5049952;28;20566;-76
2024/03/05 04:53:31;;;;;;;42.28;15.52;;;6.40;99.90;;;;;;5047527;28;20025;-74
2024/03/05 04:55:57;;;;;;;37.47;14.35;;;6.40;99.90;;;;;;5047425;28;20505;-75
2024/03/05 04:58:24;;;;;;;39.78;15.05;;;6.40;99.90;;;;;;5048548;28;20035;-74
2024/03/05 05:00:50;;;;;;;38.67;13.82;;;6.40;99.90;;;;;;5044698;28;20116;-73
2024/03/05 05:03:16;;;;;;;36.17;14.15;;;6.40;99.90;;;;;;5049646;28;20055;-74
2024/03/05 05:05:42;;;;;;;31.75;13.30;;;6.40;99.90;;;;;;5051403;28;20025;-74
2024/03/05 05:08:08;;;;;;;37.35;16.25;;;6.40;99.90;;;;;;5048592;28;20044;-73
2024/03/05 05:10:34;;;;;;;42.35;15.25;;;6.40;99.90;;;;;;5046782;28;20025;-74
2024/03/05 05:12:59;;;;;;;40.83;16.30;;;6.50;99.90;;;;;;5048093;28;20269;-73
2024/03/05 05:15:25;;;;;;;43.10;15.88;;;6.50;99.90;;;;;;5050813;28;20410;-75
2024/03/05 05:17:51;;;;;;;35.38;14.40;;;6.50;99.90;;;;;;5053539;28;20029;-74
2024/03/05 05:20:18;;;;;;;37.60;15.15;;;6.50;99.90;;;;;;5055796;28;20348;-73
2024/03/05 05:22:44;;;;;;;34.80;15.50;;;6.50;99.90;;;;;;5056943;28;20405;-72
2024/03/05 05:25:19;;;;;;;39.40;15.70;;;6.60;99.90;;;;;;5055342;28;20052;-74
2024/03/05 05:27:48;;;;;;;32.38;14.30;;;6.50;99.90;;;;;;5052287;28;20024;-72
2024/03/05 05:30:21;;;;;;;40.47;14.93;;;6.50;99.90;;;;;;5053982;28;20024;-74
2024/03/05 05:32:49;;;;;;;38.65;15.80;;;6.50;99.90;;;;;;5050343;28;20037;-75
2024/03/05 05:35:18;;;;;;;;;;;6.50;99.90;;;;;;5050602;28;20234;-73
2024/03/05 05:37:44;;;;;;;33.03;13.88;;;6.50;99.90;;;;;;5051585;28;20342;-74
2024/03/05 05:40:16;;;;;;;30.98;13.27;;;6.50;99.90;;;;;;5053953;28;20016;-73
2024/03/05 05:42:47;;;;;;;29.25;13.77;;;6.50;99.90;;;;;;5054967;28;20037;-72
2024/03/05 05:45:12;;;;;;;38.10;15.68;;;6.50;99.90;;;;;;5050181;28;20084;-74
2024/03/05 05:47:42;;;;;;;33.17;13.40;;;6.40;99.90;;;;;;5054633;28;20533;-75
2024/03/05 05:50:17;;;;;;;41.53;14.82;;;6.30;99.90;;;;;;5048891;28;20024;-73
2024/03/05 05:52:52;;;;;;;33.47;14.05;;;6.40;99.90;;;;;;5045269;28;20048;-75
2024/03/05 05:55:20;;;;;;;31.85;13.05;;;6.40;99.90;;;;;;5047665;28;20036;-74
2024/03/05 05:57:52;;;;;;;33.70;13.00;;;6.40;99.90;;;;;;5045556;28;20071;-73
2024/03/05 06:00:22;;;;;;;32.80;14.10;;;6.40;99.90;;;;;;5042180;28;20032;-74
2024/03/05 06:02:55;;;;;;;33.83;13.75;;;6.40;99.90;;;;;;5041150;28;20041;-74
2024/03/05 06:05:28;;;;;;;32.22;14.55;;;6.50;99.90;;;;;;5042874;28;20044;-74
2024/03/05 06:07:55;;;;;;;37.83;15.98;;;6.50;99.90;;;;;;5041777;28;20466;-74
2024/03/05 06:10:23;;;;;;;39.75;17.02;;;6.50;99.90;;;;;;5022578;28;20060;-74
2024/03/05 06:12:50;;;;;;;38.40;16.42;;;6.50;99.90;;;;;;5044108;28;20398;-74
2024/03/05 06:15:19;;;;;;;39.70;14.90;;;6.50;99.90;;;;;;5044969;28;20067;-74
2024/03/05 06:17:45;;;;;;;40.55;16.02;;;6.50;99.90;;;;;;5040260;28;20033;-73
2024/03/05 06:20:12;;;;;;;26.10;12.98;;;6.30;99.90;;;;;;5044354;28;20409;-74
2024/03/05 06:22:42;;;;;;;31.65;13.40;;;6.20;99.90;;;;;;5042491;28;20525;-74
2024/03/05 06:25:08;;;;;;;35.20;14.65;;;6.10;99.90;;;;;;5044405;28;20033;-72
2024/03/05 06:27:36;;;;;;;36.40;15.00;;;6.10;99.90;;;;;;5047422;28;20033;-73
2024/03/05 06:30:04;;;;;;;34.20;14.25;;;6.10;99.90;;;;;;5045943;28;20028;-73
2024/03/05 06:32:31;;;;;;;30.85;13.50;;;6.10;99.90;;;;;;5042948;28;20115;-74
2024/03/05 06:34:57;;;;;;;33.50;13.82;;;6.10;99.90;;;;;;5044428;28;20044;-73
2024/03/05 06:37:23;;;;;;;36.33;15.10;;;6.20;99.90;;;;;;5044098;28;20029;-73
2024/03/05 06:39:48;;;;;;;35.83;14.60;;;6.20;99.90;;;;;;5042034;28;20029;-73
2024/03/05 06:42:14;;;;;;;37.63;14.65;;;6.30;99.90;;;;;;5044291;28;20557;-75
2024/03/05 06:44:47;;;;;;;34.47;13.95;;;6.30;99.90;;;;;;5038922;28;20025;-74
2024/03/05 06:47:16;;;;;;;32.28;14.05;;;6.30;99.90;;;;;;5042920;28;20479;-76
2024/03/05 06:49:43;;;;;;;34.25;13.18;;;6.40;99.90;;;;;;5044357;28;20025;-74
2024/03/05 06:57:37;;;;;;;44.72;17.45;;;6.40;99.90;;;;;;5050816;28;20036;-74
2024/03/05 07:00:15;;;;;;;41.60;15.65;;;6.50;99.90;;;;;;5068041;28;20128;-73
2024/03/05 07:02:42;;;;;;;40.13;15.23;;;6.50;99.90;;;;;;5080752;28;20039;-72
2024/03/05 07:05:12;;;;;;;38.88;17.00;;;6.60;99.90;;;;;;5065999;28;20033;-74
2024/03/05 07:07:37;;;;;;;41.45;17.90;;;6.60;99.90;;;;;;5072020;28;20013;-73
2024/03/05 07:10:13;;;;;;;37.72;15.77;;;6.70;99.90;;;;;;5069848;28;20036;-74
2024/03/05 07:12:44;;;;;;;37.70;16.38;;;6.70;99.90;;;;;;5072227;28;20040;-73
2024/03/05 07:15:14;;;;;;;36.75;15.20;;;6.70;99.90;;;;;;5065960;28;20021;-74
2024/03/05 07:17:43;;;;;;;36.80;16.52;;;6.70;99.90;;;;;;5072627;28;20028;-74
2024/03/05 07:20:22;;;;;;;38.08;16.70;;;6.70;99.90;;;;;;5068447;28;20044;-73
2024/03/05 07:22:51;;;;;;;36.60;14.80;;;6.80;99.90;;;;;;5071580;28;20099;-73
2024/03/05 07:25:17;;;;;;;37.97;14.45;;;6.80;99.90;;;;;;5070750;28;20108;-73
2024/03/05 07:27:44;;;;;;;27.58;13.85;;;6.70;99.90;;;;;;5070798;28;20027;-75
2024/03/05 07:30:15;;;;;;;38.80;15.23;;;6.70;99.90;;;;;;5072631;28;20208;-74
2024/03/05 07:32:50;;;;;;;37.30;15.45;;;6.70;99.90;;;;;;5072428;28;20118;-73
2024/03/05 07:35:17;;;;;;;40.70;16.05;;;6.70;99.90;;;;;;5070457;28;20305;-73
2024/03/05 07:37:47;;;;;;;39.88;16.65;;;6.80;99.90;;;;;;5061436;28;20093;-75
2024/03/05 07:40:16;;;;;;;37.83;16.35;;;6.80;99.90;;;;;;5050652;28;20036;-74
2024/03/05 07:42:49;;;;;;;44.95;18.65;;;6.80;99.90;;;;;;5048113;28;20124;-75
2024/03/05 07:45:19;;;;;;;35.13;14.50;;;6.90;99.90;;;;;;5046744;28;20421;-74
2024/03/05 07:47:45;;;;;;;46.03;16.27;;;6.90;99.90;;;;;;5047608;28;21730;-76
2024/03/05 07:50:12;;;;;;;40.60;14.98;;;6.90;99.90;;;;;;5050211;28;20025;-74
2024/03/05 07:52:46;;;;;;;38.30;15.07;;;6.90;99.90;;;;;;5051352;28;20048;-74
2024/03/05 07:55:21;;;;;;;37.55;15.05;;;7.00;99.90;;;;;;5050380;28;20501;-74
2024/03/05 07:57:49;;;;;;;39.67;15.70;;;7.00;99.90;;;;;;5046705;28;20032;-76
2024/03/05 08:00:17;;;;;;;39.58;17.02;;;7.00;99.90;;;;;;5050652;28;20029;-75
2024/03/05 08:02:45;;;;;;;40.78;15.70;;;7.00;99.90;;;;;;5047298;28;20049;-73
2024/03/05 08:05:17;;;;;;;42.40;17.58;;;7.10;99.90;;;;;;5065867;28;20041;-74
2024/03/05 08:07:43;;;;;;;37.08;13.95;;;7.10;99.90;;;;;;5052731;28;20063;-73
2024/03/05 08:10:10;;;;;;;42.03;15.55;;;7.10;99.90;;;;;;5061441;28;20040;-77
2024/03/05 08:12:37;;;;;;;34.20;13.43;;;7.20;99.90;;;;;;5057912;28;20034;-73
2024/03/05 08:15:04;;;;;;;40.70;16.02;;;7.20;99.90;;;;;;5060044;28;20025;-74
2024/03/05 08:17:36;;;;;;;40.00;15.43;;;7.10;99.90;;;;;;5059856;28;20038;-74
2024/03/05 08:20:07;;;;;;;34.85;14.25;;;7.20;99.90;;;;;;5059102;28;20049;-75
2024/03/05 08:22:34;;;;;;;39.53;15.15;;;7.20;99.90;;;;;;5059268;28;20040;-76
2024/03/05 08:25:09;;;;;;;43.00;14.95;;;7.20;99.90;;;;;;5061191;28;20035;-75
2024/03/05 08:27:38;;;;;;;31.38;14.10;;;7.30;99.90;;;;;;5059830;28;20028;-76
2024/03/05 08:30:08;;;;;;;37.55;14.38;;;7.30;99.90;;;;;;5061174;28;20028;-74
2024/03/05 08:32:38;;;;;;;39.35;15.00;;;7.40;99.90;;;;;;5057241;28;20040;-75
2024/03/05 08:35:06;;;;;;;39.30;14.02;;;7.40;99.90;;;;;;5059598;28;20044;-75
2024/03/05 08:37:32;;;;;;;31.40;14.80;;;7.40;99.90;;;;;;5061868;28;20406;-75
2024/03/05 08:39:58;;;;;;;36.45;14.38;;;7.40;99.90;;;;;;5047192;28;20041;-75
2024/03/05 08:42:24;;;;;;;38.78;16.08;;;7.30;99.90;;;;;;5059076;28;20044;-74
2024/03/05 08:44:49;;;;;;;29.85;12.50;;;7.40;99.90;;;;;;5059128;28;20033;-74
2024/03/05 08:47:15;;;;;;;25.13;12.43;;;7.30;99.90;;;;;;5055718;28;20036;-72
2024/03/05 08:49:41;;;;;;;28.85;12.80;;;7.30;99.90;;;;;;5050688;28;20086;-75
2024/03/05 08:52:07;;;;;;;37.22;13.35;;;7.30;99.90;;;;;;5049724;28;20063;-74
2024/03/05 08:54:34;;;;;;;37.40;14.27;;;7.30;99.90;;;;;;5051883;28;20472;-73
2024/03/05 08:57:00;;;;;;;34.60;13.57;;;7.30;99.90;;;;;;5058011;28;20475;-73
2024/03/05 08:59:26;;;;;;;40.85;15.18;;;7.40;99.90;;;;;;5056306;28;20082;-74
2024/03/05 09:01:53;;;;;;;28.58;12.57;;;7.40;99.90;;;;;;5056628;28;20086;-75
2024/03/05 09:04:25;;;;;;;35.95;13.25;;;7.40;99.90;;;;;;5057615;28;20036;-74
2024/03/05 09:06:53;;;;;;;32.42;13.80;;;7.40;99.90;;;;;;5051489;28;20028;-75
2024/03/05 09:09:18;;;;;;;36.75;12.73;;;7.30;99.90;;;;;;5052263;28;20071;-74
2024/03/05 09:11:46;;;;;;;36.85;13.63;;;7.40;99.90;;;;;;5051435;28;20037;-75
2024/03/05 09:14:12;;;;;;;37.40;13.83;;;7.30;99.90;;;;;;5049777;28;20029;-76
2024/03/05 09:16:38;;;;;;;37.65;13.00;;;7.40;99.90;;;;;;5051523;28;20356;-76
2024/03/05 09:19:05;;;;;;;34.22;14.02;;;7.40;99.90;;;;;;5049518;28;20479;-74
2024/03/05 09:21:32;;;;;;;33.10;13.23;;;7.40;99.90;;;;;;5053840;28;20064;-74
2024/03/05 09:23:59;;;;;;;35.17;14.13;;;7.40;99.90;;;;;;5049877;28;20106;-73
2024/03/05 09:26:25;;;;;;;36.88;14.27;;;7.50;99.90;;;;;;5050461;28;20486;-73
2024/03/05 09:28:51;;;;;;;36.40;15.10;;;7.50;99.90;;;;;;5047916;28;20022;-74
2024/03/05 09:31:18;;;;;;;34.13;13.40;;;7.50;99.90;;;;;;5051425;28;20302;-74
2024/03/05 09:33:47;;;;;;;20.92;9.40;;;7.50;99.90;;;;;;5048520;28;20028;-74
2024/03/05 09:36:13;;;;;;;;;;;7.50;99.90;;;;;;5053661;28;20031;-75
2024/03/05 09:38:40;;;;;;;25.70;10.63;;;7.50;99.90;;;;;;5045716;28;19948;-74
2024/03/05 09:41:08;;;;;;;19.73;10.80;;;7.50;99.90;;;;;;5054640;28;20041;-75
2024/03/05 09:43:39;;;;;;;35.13;14.60;;;7.40;99.90;;;;;;5054106;28;20029;-75
2024/03/05 09:46:06;;;;;;;37.55;13.35;;;7.50;99.90;;;;;;5058435;28;20017;-75
2024/03/05 09:48:39;;;;;;;33.17;13.15;;;7.50;99.90;;;;;;5059363;28;20025;-75
2024/03/05 09:51:17;;;;;;;29.85;12.45;;;7.60;99.90;;;;;;5057110;28;20078;-73
2024/03/05 09:53:43;;;;;;;33.13;12.75;;;7.60;99.90;;;;;;5055570;28;20084;-74
2024/03/05 09:56:15;;;;;;;35.35;13.27;;;7.70;99.90;;;;;;5049752;28;20071;-74
2024/03/05 09:58:41;;;;;;;31.77;13.05;;;7.80;99.90;;;;;;5050942;28;20036;-75
2024/03/05 10:01:07;;;;;;;38.45;14.45;;;7.80;99.90;;;;;;5048586;28;20033;-76
2024/03/05 10:03:35;;;;;;;31.35;13.55;;;7.90;99.90;;;;;;5050193;28;20501;-74
2024/03/05 10:06:02;;;;;;;25.25;10.25;;;7.90;99.90;;;;;;5051209;28;20029;-75
2024/03/05 10:08:28;;;;;;;22.70;10.18;;;8.10;99.90;;;;;;5050592;28;20516;-75
2024/03/05 10:11:04;;;;;;;32.75;11.15;;;8.10;99.90;;;;;;5046337;28;20593;-76
2024/03/05 10:13:35;;;;;;;27.17;11.32;;;8.20;99.90;;;;;;5046565;28;20114;-74
2024/03/05 10:16:27;;;;;;;27.08;10.52;;;8.20;99.90;;;;;;5040374;28;20873;-74
2024/03/05 10:18:53;;;;;;;22.90;9.40;;;8.30;99.90;;;;;;5048267;28;20090;-74
2024/03/05 10:21:22;;;;;;;17.80;8.70;;;8.30;99.90;;;;;;5041845;28;20266;-74
2024/03/05 10:23:58;;;;;;;26.77;11.77;;;8.30;99.90;;;;;;5046223;28;20079;-74
2024/03/05 10:26:27;;;;;;;29.48;12.77;;;8.30;99.90;;;;;;5048243;28;20047;-74
2024/03/05 10:28:59;;;;;;;20.98;10.07;;;8.40;99.90;;;;;;5048781;28;20041;-74
2024/03/05 10:31:27;;;;;;;17.60;8.18;;;8.50;99.90;;;;;;5049681;28;20107;-75
2024/03/05 10:33:58;;;;;;;31.65;11.02;;;8.50;99.90;;;;;;5056128;28;20013;-74
2024/03/05 10:36:29;;;;;;;26.08;10.27;;;8.40;99.90;;;;;;5054938;28;20359;-75
2024/03/05 10:38:55;;;;;;;28.65;11.18;;;8.30;99.90;;;;;;5054934;28;20109;-76
2024/03/05 10:41:31;;;;;;;20.15;8.25;;;8.40;99.90;;;;;;5054794;28;20118;-76
2024/03/05 10:44:01;;;;;;;27.25;12.45;;;8.50;99.90;;;;;;5053389;28;20033;-74
2024/03/05 10:46:32;;;;;;;26.55;12.82;;;8.50;99.90;;;;;;5047583;28;20029;-75
2024/03/05 10:49:03;;;;;;;12.35;6.38;;;8.50;99.90;;;;;;5046814;28;20079;-73
2024/03/05 10:51:31;;;;;;;24.17;11.85;;;8.50;99.90;;;;;;5046356;28;20079;-72
2024/03/05 10:54:01;;;;;;;20.38;8.73;;;8.40;99.90;;;;;;5051229;28;20024;-74
2024/03/05 10:56:28;;;;;;;19.52;9.57;;;8.40;99.90;;;;;;5050652;28;20025;-75
2024/03/05 11:01:40;;;;;;;24.90;12.32;;;8.30;99.90;;;;;;5045425;28;20040;-73
2024/03/05 11:04:31;;;;;;;13.27;7.25;;;8.30;99.90;;;;;;5048762;28;20025;-74
2024/03/05 11:06:58;;;;;;;10.80;6.15;;;8.30;99.90;;;;;;5051276;28;20085;-77
2024/03/05 11:09:26;;;;;;;15.80;7.88;;;8.30;99.90;;;;;;5061192;28;20308;-74
2024/03/05 11:12:09;;;;;;;18.13;10.23;;;8.30;99.90;;;;;;5060618;28;20031;-74
2024/03/05 11:14:36;;;;;;;24.33;9.63;;;8.20;99.90;;;;;;5057398;28;20437;-74
2024/03/05 11:17:10;;;;;;;23.65;10.60;;;8.30;99.90;;;;;;5059585;28;20045;-75
2024/03/05 11:19:42;;;;;;;10.25;5.43;;;8.30;99.90;;;;;;5062606;28;20063;-75
2024/03/05 11:22:23;;;;;;;13.68;8.48;;;8.40;99.90;;;;;;5058172;28;20026;-75
2024/03/05 11:25:01;;;;;;;19.00;10.15;;;8.40;99.90;;;;;;5059983;28;20564;-75
2024/03/05 11:27:29;;;;;;;15.73;9.10;;;8.50;99.90;;;;;;5060244;28;20446;-75
2024/03/05 11:30:12;;;;;;;20.63;10.55;;;8.60;99.90;;;;;;5049999;28;20063;-74
2024/03/05 11:32:39;;;;;;;18.77;8.85;;;8.70;99.90;;;;;;5053673;28;20060;-77
2024/03/05 11:35:08;;;;;;;18.17;9.70;;;8.70;99.90;;;;;;5061422;28;20525;-75
2024/03/05 11:37:54;;;;;;;18.10;8.68;;;8.80;99.90;;;;;;5056560;28;20028;-75
2024/03/05 11:40:34;;;;;;;12.23;5.78;;;8.90;99.90;;;;;;5059795;28;20063;-75
2024/03/05 11:43:01;;;;;;;18.40;10.05;;;9.00;99.90;;;;;;5051057;28;20144;-73
2024/03/05 11:45:46;;;;;;;15.95;7.35;;;8.90;99.90;;;;;;5054813;28;20056;-75
2024/03/05 11:48:18;;;;;;;11.35;6.50;;;9.00;99.90;;;;;;5051563;28;20033;-74
2024/03/05 11:50:44;;;;;;;17.42;9.48;;;9.10;99.90;;;;;;5050517;28;20037;-74
2024/03/05 11:53:10;;;;;;;10.48;6.30;;;9.20;99.90;;;;;;5051053;28;20025;-74
2024/03/05 11:55:36;;;;;;;16.50;8.20;;;9.20;99.90;;;;;;5054403;28;20036;-74
2024/03/05 11:58:03;;;;;;;13.50;6.82;;;9.20;99.90;;;;;;5049262;28;20025;-74
2024/03/05 12:00:29;;;;;;;10.52;5.78;;;9.20;99.90;;;;;;5053276;28;20037;-74
2024/03/05 12:03:01;;;;;;;18.42;9.10;;;9.30;99.90;;;;;;5051049;28;20264;-74
2024/03/05 12:05:29;;;;;;;14.43;7.68;;;9.30;99.90;;;;;;5048339;28;20059;-75
2024/03/05 12:08:06;;;;;;;18.98;10.82;;;9.40;99.90;;;;;;5049443;28;20024;-74
2024/03/05 12:10:36;;;;;;;16.23;8.20;;;9.40;99.90;;;;;;5050816;28;20268;-75
2024/03/05 12:13:04;;;;;;;15.32;7.38;;;9.50;99.90;;;;;;5048763;28;20021;-74
2024/03/05 12:15:31;;;;;;;13.45;8.13;;;9.50;99.90;;;;;;5046597;28;20529;-74
2024/03/05 12:17:57;;;;;;;14.77;8.52;;;9.40;99.90;;;;;;5050639;28;20021;-74
2024/03/05 12:20:24;;;;;;;15.93;9.13;;;9.50;99.90;;;;;;5048888;28;20017;-75
2024/03/05 12:22:53;;;;;;;10.20;6.57;;;9.50;99.90;;;;;;5046451;28;20028;-74
2024/03/05 12:25:29;;;;;;;9.43;6.35;;;9.40;99.90;;;;;;5043897;28;20076;-74
2024/03/05 12:27:55;;;;;;;8.65;5.70;;;9.30;99.90;;;;;;5051432;28;20035;-74
2024/03/05 12:30:21;;;;;;;9.77;6.47;;;9.30;99.90;;;;;;5042066;28;20017;-75
2024/03/05 12:32:54;;;;;;;11.40;7.45;;;9.40;99.90;;;;;;5052053;28;20036;-73
2024/03/05 12:35:23;;;;;;;10.73;6.03;;;9.50;99.90;;;;;;5045786;28;20583;-73
2024/03/05 12:37:50;;;;;;;6.95;5.47;;;9.50;99.90;;;;;;5048179;28;20038;-74
2024/03/05 12:40:28;;;;;;;13.75;7.35;;;9.50;99.90;;;;;;5050057;28;20029;-75
2024/03/05 12:43:08;;;;;;;7.97;5.03;;;9.50;99.90;;;;;;5047222;28;20044;-74
2024/03/05 12:45:34;;;;;;;8.65;5.00;;;9.60;99.90;;;;;;5046448;28;20029;-75
2024/03/05 12:48:10;;;;;;;6.25;4.40;;;9.60;99.90;;;;;;5049141;28;20085;-74
2024/03/05 12:50:36;;;;;;;8.93;5.95;;;9.70;99.90;;;;;;5049926;28;20051;-74
2024/03/05 12:53:09;;;;;;;12.90;6.57;;;9.70;99.90;;;;;;5050348;28;20260;-74
2024/03/05 12:55:35;;;;;;;13.68;7.90;;;9.80;99.90;;;;;;5047810;28;20032;-74